createdAt,value
2023-04-15T00:02:07.026Z,97230
2023-04-15T00:14:07.020Z,97220
2023-04-15T00:26:07.044Z,97210
2023-04-15T00:38:06.975Z,97230
2023-04-15T00:50:06.972Z,97210
2023-04-15T01:02:07.151Z,97210
2023-04-15T01:14:07.066Z,97210
2023-04-15T01:26:06.985Z,97200
2023-04-15T01:38:06.989Z,97210
2023-04-15T01:50:07.086Z,97200
2023-04-15T02:02:07.101Z,97200
2023-04-15T02:14:07.023Z,97190
2023-04-15T02:26:07.111Z,97200
2023-04-15T02:38:07.172Z,97200
2023-04-15T02:50:07.068Z,97200
2023-04-15T03:02:07.105Z,97210
2023-04-15T03:14:07.112Z,97210
2023-04-15T03:26:07.054Z,97210
2023-04-15T03:38:06.982Z,97200
2023-04-15T03:50:06.981Z,97200
2023-04-15T04:02:07.120Z,97210
2023-04-15T04:14:06.992Z,97210
2023-04-15T04:26:07.076Z,97210
2023-04-15T04:38:06.972Z,97220
2023-04-15T04:50:07.005Z,97210
2023-04-15T05:02:07.087Z,97220
2023-04-15T05:14:07.060Z,97220
2023-04-15T05:26:06.994Z,97230
2023-04-15T05:38:07.099Z,97250
2023-04-15T05:50:06.999Z,97270
2023-04-15T06:02:07.143Z,97270
2023-04-15T06:14:07.099Z,97270
2023-04-15T06:26:06.981Z,97300
2023-04-15T06:38:06.995Z,97310
2023-04-15T06:50:06.997Z,97310
2023-04-15T07:02:07.034Z,97320
2023-04-15T07:14:06.982Z,97340
2023-04-15T07:26:07.055Z,97360
2023-04-15T07:38:06.979Z,97350
2023-04-15T07:50:07.098Z,97380
2023-04-15T08:02:11.122Z,97380
2023-04-15T08:14:07.054Z,97390
2023-04-15T08:26:07.056Z,97410
2023-04-15T08:38:06.986Z,97430
2023-04-15T08:50:07.045Z,97450
2023-04-15T09:02:07.009Z,97450
2023-04-15T09:14:07.045Z,97470
2023-04-15T09:26:07.001Z,97470
2023-04-15T09:38:06.988Z,97490
2023-04-15T09:50:07.046Z,97510
2023-04-15T10:02:07.100Z,97500
2023-04-15T10:14:07.036Z,97520
2023-04-15T10:26:07.061Z,97530
2023-04-15T10:38:06.985Z,97530
2023-04-15T10:50:07.046Z,97530
2023-04-15T11:02:16.334Z,97540
2023-04-15T11:14:07.076Z,97560
2023-04-15T11:26:07.077Z,97570
2023-04-15T11:38:06.978Z,97600
2023-04-15T11:50:06.999Z,97620
2023-04-15T12:02:07.073Z,97630
2023-04-15T12:14:07.066Z,97650
2023-04-15T12:26:06.994Z,97670
2023-04-15T12:38:06.987Z,97690
2023-04-15T12:50:06.974Z,97710
2023-04-15T13:02:07.034Z,97720
2023-04-15T13:14:07.262Z,97730
2023-04-15T13:26:06.983Z,97740
2023-04-15T13:38:07.037Z,97750
2023-04-15T13:50:07.097Z,97760
2023-04-15T14:02:07.165Z,97780
2023-04-15T14:14:07.117Z,97790
2023-04-15T14:26:06.993Z,97800
2023-04-15T14:38:07.011Z,97830
2023-04-15T14:50:07.029Z,97830
2023-04-15T15:02:07.031Z,97830
2023-04-15T15:14:07.017Z,97860
2023-04-15T15:26:10.779Z,97850
2023-04-15T15:38:06.990Z,97880
2023-04-15T15:50:07.106Z,97880
2023-04-15T16:02:07.600Z,97880
2023-04-15T16:14:06.980Z,97910
2023-04-15T16:26:07.062Z,97900
2023-04-15T16:38:07.004Z,97910
2023-04-15T16:50:06.990Z,97940
2023-04-15T17:02:06.994Z,97930
2023-04-15T17:14:07.643Z,97950
2023-04-15T17:26:07.006Z,97960
2023-04-15T17:38:07.067Z,97970
2023-04-15T17:50:07.409Z,97980
2023-04-15T18:02:07.020Z,98000
2023-04-15T18:14:07.331Z,98010
2023-04-15T18:26:06.989Z,98020
2023-04-15T18:38:07.095Z,98050
2023-04-15T18:50:06.985Z,98060
2023-04-15T19:02:07.043Z,98080
2023-04-15T19:14:06.996Z,98090
2023-04-15T19:26:14.124Z,98100
2023-04-15T19:38:07.025Z,98110
2023-04-15T19:50:06.988Z,98120
2023-04-15T20:02:07.138Z,98130
2023-04-15T20:14:06.996Z,98140
2023-04-15T20:26:07.042Z,98140
2023-04-15T20:38:07.098Z,98150
2023-04-15T20:50:07.002Z,98160
2023-04-15T21:02:07.087Z,98160
2023-04-15T21:14:07.097Z,98180
2023-04-15T21:26:07.003Z,98180
2023-04-15T21:38:07.087Z,98200
2023-04-15T21:50:07.087Z,98210
2023-04-15T22:02:07.092Z,98220
2023-04-15T22:14:07.088Z,98240
2023-04-15T22:26:06.981Z,98250
2023-04-15T22:38:07.006Z,98270
2023-04-15T22:50:07.046Z,98270
2023-04-15T23:02:07.111Z,98290
2023-04-15T23:14:06.985Z,98270
2023-04-15T23:26:06.991Z,98280
2023-04-15T23:38:07.070Z,98300
2023-04-15T23:50:06.984Z,98290
